sensor_id;sensor_type;location;lat;lon;timestamp;P1;durP1;ratioP1;P2;durP2;ratioP2
41629;SDS011;27322;49.488;8.480;2022-09-16T00:00:35;4.15;;;1.30;;
41629;SDS011;27322;49.488;8.480;2022-09-16T00:03:01;3.72;;;1.00;;
41629;SDS011;27322;49.488;8.480;2022-09-16T00:05:27;3.03;;;1.20;;
41629;SDS011;27322;49.488;8.480;2022-09-16T00:07:54;5.32;;;1.20;;
41629;SDS011;27322;49.488;8.480;2022-09-16T00:10:20;3.88;;;1.30;;
41629;SDS011;27322;49.488;8.480;2022-09-16T00:12:47;3.88;;;1.00;;
41629;SDS011;27322;49.488;8.480;2022-09-16T00:15:13;3.88;;;1.10;;
41629;SDS011;27322;49.488;8.480;2022-09-16T00:17:40;4.63;;;1.30;;
41629;SDS011;27322;49.488;8.480;2022-09-16T00:20:06;3.45;;;1.20;;
41629;SDS011;27322;49.488;8.480;2022-09-16T00:22:32;4.80;;;1.33;;
41629;SDS011;27322;49.488;8.480;2022-09-16T00:24:58;5.05;;;1.38;;
41629;SDS011;27322;49.488;8.480;2022-09-16T00:27:24;6.18;;;1.20;;
41629;SDS011;27322;49.488;8.480;2022-09-16T00:29:49;5.57;;;1.30;;
41629;SDS011;27322;49.488;8.480;2022-09-16T00:32:15;4.85;;;1.20;;
41629;SDS011;27322;49.488;8.480;2022-09-16T00:34:41;5.43;;;1.20;;
41629;SDS011;27322;49.488;8.480;2022-09-16T00:37:06;4.28;;;1.35;;
41629;SDS011;27322;49.488;8.480;2022-09-16T00:39:33;4.30;;;1.40;;
41629;SDS011;27322;49.488;8.480;2022-09-16T00:42:00;3.45;;;1.20;;
41629;SDS011;27322;49.488;8.480;2022-09-16T00:47:15;4.45;;;1.27;;
41629;SDS011;27322;49.488;8.480;2022-09-16T00:50:27;3.97;;;1.30;;
41629;SDS011;27322;49.488;8.480;2022-09-16T00:52:48;3.72;;;1.40;;
41629;SDS011;27322;49.488;8.480;2022-09-16T00:55:17;4.75;;;1.30;;
41629;SDS011;27322;49.488;8.480;2022-09-16T00:57:46;4.00;;;1.15;;
41629;SDS011;27322;49.488;8.480;2022-09-16T01:00:13;4.35;;;1.27;;
41629;SDS011;27322;49.488;8.480;2022-09-16T01:02:42;3.22;;;1.15;;
41629;SDS011;27322;49.488;8.480;2022-09-16T01:05:11;3.60;;;1.27;;
41629;SDS011;27322;49.488;8.480;2022-09-16T01:07:50;5.35;;;1.30;;
41629;SDS011;27322;49.488;8.480;2022-09-16T01:10:18;5.68;;;1.27;;
41629;SDS011;27322;49.488;8.480;2022-09-16T01:12:47;3.95;;;1.05;;
41629;SDS011;27322;49.488;8.480;2022-09-16T01:15:25;5.90;;;1.17;;
41629;SDS011;27322;49.488;8.480;2022-09-16T01:40:48;4.10;;;1.35;;
41629;SDS011;27322;49.488;8.480;2022-09-16T01:43:38;7.13;;;1.67;;
41629;SDS011;27322;49.488;8.480;2022-09-16T01:48:41;6.18;;;1.90;;
41629;SDS011;27322;49.488;8.480;2022-09-16T01:51:28;5.10;;;1.13;;
41629;SDS011;27322;49.488;8.480;2022-09-16T01:54:05;4.13;;;1.20;;
41629;SDS011;27322;49.488;8.480;2022-09-16T01:59:14;5.00;;;1.10;;
41629;SDS011;27322;49.488;8.480;2022-09-16T02:04:27;4.30;;;1.25;;
41629;SDS011;27322;49.488;8.480;2022-09-16T02:06:58;5.18;;;1.10;;
41629;SDS011;27322;49.488;8.480;2022-09-16T02:09:27;4.75;;;1.10;;
41629;SDS011;27322;49.488;8.480;2022-09-16T02:11:57;3.33;;;1.02;;
41629;SDS011;27322;49.488;8.480;2022-09-16T02:14:29;5.57;;;1.30;;
41629;SDS011;27322;49.488;8.480;2022-09-16T02:17:00;5.60;;;1.27;;
41629;SDS011;27322;49.488;8.480;2022-09-16T02:19:33;4.10;;;1.15;;
41629;SDS011;27322;49.488;8.480;2022-09-16T02:22:04;4.45;;;1.40;;
41629;SDS011;27322;49.488;8.480;2022-09-16T02:24:33;3.42;;;1.20;;
41629;SDS011;27322;49.488;8.480;2022-09-16T02:27:03;4.43;;;1.30;;
41629;SDS011;27322;49.488;8.480;2022-09-16T02:29:42;4.55;;;1.55;;
41629;SDS011;27322;49.488;8.480;2022-09-16T02:32:12;5.13;;;1.42;;
41629;SDS011;27322;49.488;8.480;2022-09-16T02:34:41;6.25;;;1.58;;
41629;SDS011;27322;49.488;8.480;2022-09-16T02:37:11;3.22;;;1.20;;
41629;SDS011;27322;49.488;8.480;2022-09-16T02:39:51;5.72;;;1.40;;
41629;SDS011;27322;49.488;8.480;2022-09-16T02:42:21;6.35;;;1.40;;
41629;SDS011;27322;49.488;8.480;2022-09-16T02:44:47;5.95;;;1.30;;
41629;SDS011;27322;49.488;8.480;2022-09-16T02:55:12;6.47;;;1.30;;
41629;SDS011;27322;49.488;8.480;2022-09-16T02:57:42;4.05;;;1.45;;
41629;SDS011;27322;49.488;8.480;2022-09-16T03:00:08;6.95;;;1.70;;
41629;SDS011;27322;49.488;8.480;2022-09-16T03:02:34;6.00;;;1.42;;
41629;SDS011;27322;49.488;8.480;2022-09-16T03:05:00;6.47;;;1.60;;
41629;SDS011;27322;49.488;8.480;2022-09-16T03:07:27;5.15;;;1.63;;
41629;SDS011;27322;49.488;8.480;2022-09-16T03:09:53;8.68;;;1.90;;
41629;SDS011;27322;49.488;8.480;2022-09-16T03:12:23;5.68;;;1.50;;
41629;SDS011;27322;49.488;8.480;2022-09-16T03:25:38;7.03;;;2.00;;
41629;SDS011;27322;49.488;8.480;2022-09-16T03:31:02;6.55;;;2.05;;
41629;SDS011;27322;49.488;8.480;2022-09-16T03:33:34;6.60;;;2.13;;
41629;SDS011;27322;49.488;8.480;2022-09-16T03:36:02;6.60;;;1.90;;
41629;SDS011;27322;49.488;8.480;2022-09-16T03:38:32;3.63;;;1.30;;
41629;SDS011;27322;49.488;8.480;2022-09-16T03:41:01;8.00;;;1.40;;
41629;SDS011;27322;49.488;8.480;2022-09-16T03:43:28;5.05;;;1.30;;
41629;SDS011;27322;49.488;8.480;2022-09-16T03:45:54;5.38;;;1.73;;
41629;SDS011;27322;49.488;8.480;2022-09-16T03:48:19;4.22;;;1.27;;
41629;SDS011;27322;49.488;8.480;2022-09-16T03:50:45;4.32;;;1.30;;
41629;SDS011;27322;49.488;8.480;2022-09-16T03:53:11;5.90;;;1.35;;
41629;SDS011;27322;49.488;8.480;2022-09-16T03:55:36;5.38;;;1.30;;
41629;SDS011;27322;49.488;8.480;2022-09-16T03:58:02;2.80;;;1.20;;
41629;SDS011;27322;49.488;8.480;2022-09-16T04:00:28;4.38;;;1.23;;
41629;SDS011;27322;49.488;8.480;2022-09-16T04:02:54;3.53;;;1.15;;
41629;SDS011;27322;49.488;8.480;2022-09-16T04:05:19;6.20;;;1.55;;
41629;SDS011;27322;49.488;8.480;2022-09-16T04:07:47;4.38;;;1.20;;
41629;SDS011;27322;49.488;8.480;2022-09-16T04:10:14;5.18;;;1.52;;
41629;SDS011;27322;49.488;8.480;2022-09-16T04:12:40;5.57;;;1.38;;
41629;SDS011;27322;49.488;8.480;2022-09-16T04:15:06;4.75;;;1.20;;
41629;SDS011;27322;49.488;8.480;2022-09-16T04:17:32;3.60;;;1.20;;
41629;SDS011;27322;49.488;8.480;2022-09-16T04:19:57;6.45;;;1.30;;
41629;SDS011;27322;49.488;8.480;2022-09-16T04:22:23;8.07;;;1.55;;
41629;SDS011;27322;49.488;8.480;2022-09-16T04:24:51;4.20;;;1.50;;
41629;SDS011;27322;49.488;8.480;2022-09-16T04:27:17;5.85;;;1.55;;
41629;SDS011;27322;49.488;8.480;2022-09-16T04:29:43;4.38;;;1.20;;
41629;SDS011;27322;49.488;8.480;2022-09-16T04:32:09;7.13;;;1.33;;
41629;SDS011;27322;49.488;8.480;2022-09-16T04:34:34;6.13;;;1.40;;
41629;SDS011;27322;49.488;8.480;2022-09-16T04:37:00;6.35;;;1.40;;
41629;SDS011;27322;49.488;8.480;2022-09-16T04:39:26;5.53;;;1.50;;
41629;SDS011;27322;49.488;8.480;2022-09-16T04:41:51;2.97;;;1.15;;
41629;SDS011;27322;49.488;8.480;2022-09-16T04:44:17;5.40;;;1.20;;
41629;SDS011;27322;49.488;8.480;2022-09-16T04:46:43;4.40;;;1.20;;
41629;SDS011;27322;49.488;8.480;2022-09-16T04:49:08;3.63;;;1.30;;
41629;SDS011;27322;49.488;8.480;2022-09-16T04:51:36;5.57;;;1.50;;
41629;SDS011;27322;49.488;8.480;2022-09-16T04:54:03;5.22;;;1.20;;
41629;SDS011;27322;49.488;8.480;2022-09-16T04:56:29;6.35;;;1.80;;
41629;SDS011;27322;49.488;8.480;2022-09-16T04:59:00;4.07;;;1.45;;
41629;SDS011;27322;49.488;8.480;2022-09-16T05:01:29;5.88;;;1.48;;
41629;SDS011;27322;49.488;8.480;2022-09-16T05:03:57;4.85;;;1.60;;
41629;SDS011;27322;49.488;8.480;2022-09-16T05:06:26;3.92;;;1.30;;
41629;SDS011;27322;49.488;8.480;2022-09-16T05:08:54;4.45;;;1.48;;
41629;SDS011;27322;49.488;8.480;2022-09-16T05:11:21;6.75;;;1.60;;
41629;SDS011;27322;49.488;8.480;2022-09-16T05:14:01;4.13;;;1.60;;
41629;SDS011;27322;49.488;8.480;2022-09-16T05:16:28;8.93;;;1.52;;
41629;SDS011;27322;49.488;8.480;2022-09-16T05:18:56;4.07;;;1.67;;
41629;SDS011;27322;49.488;8.480;2022-09-16T05:21:24;6.57;;;1.40;;
41629;SDS011;27322;49.488;8.480;2022-09-16T05:23:51;5.78;;;1.75;;
41629;SDS011;27322;49.488;8.480;2022-09-16T05:26:18;7.10;;;1.58;;
41629;SDS011;27322;49.488;8.480;2022-09-16T05:28:46;4.30;;;1.20;;
41629;SDS011;27322;49.488;8.480;2022-09-16T05:31:16;5.28;;;1.60;;
41629;SDS011;27322;49.488;8.480;2022-09-16T05:33:45;6.53;;;1.50;;
41629;SDS011;27322;49.488;8.480;2022-09-16T05:36:17;4.63;;;1.75;;
41629;SDS011;27322;49.488;8.480;2022-09-16T05:38:43;5.07;;;1.83;;
41629;SDS011;27322;49.488;8.480;2022-09-16T05:41:09;6.22;;;1.65;;
41629;SDS011;27322;49.488;8.480;2022-09-16T05:43:35;5.93;;;1.90;;
41629;SDS011;27322;49.488;8.480;2022-09-16T05:46:01;4.60;;;1.85;;
41629;SDS011;27322;49.488;8.480;2022-09-16T05:48:28;4.07;;;1.55;;
41629;SDS011;27322;49.488;8.480;2022-09-16T05:50:55;5.13;;;2.10;;
41629;SDS011;27322;49.488;8.480;2022-09-16T05:53:26;6.22;;;2.00;;
41629;SDS011;27322;49.488;8.480;2022-09-16T05:55:57;7.80;;;2.10;;
41629;SDS011;27322;49.488;8.480;2022-09-16T05:58:23;7.22;;;1.73;;
41629;SDS011;27322;49.488;8.480;2022-09-16T06:00:50;5.45;;;1.77;;
41629;SDS011;27322;49.488;8.480;2022-09-16T06:03:16;4.68;;;1.48;;
41629;SDS011;27322;49.488;8.480;2022-09-16T06:05:42;4.15;;;1.27;;
41629;SDS011;27322;49.488;8.480;2022-09-16T06:08:08;4.88;;;1.50;;
41629;SDS011;27322;49.488;8.480;2022-09-16T06:10:37;6.75;;;1.65;;
41629;SDS011;27322;49.488;8.480;2022-09-16T06:13:04;4.55;;;1.60;;
41629;SDS011;27322;49.488;8.480;2022-09-16T06:15:30;5.40;;;1.60;;
41629;SDS011;27322;49.488;8.480;2022-09-16T06:17:55;8.43;;;1.63;;
41629;SDS011;27322;49.488;8.480;2022-09-16T06:20:22;7.30;;;1.73;;
41629;SDS011;27322;49.488;8.480;2022-09-16T06:22:48;3.92;;;1.60;;
41629;SDS011;27322;49.488;8.480;2022-09-16T06:25:13;6.95;;;1.95;;
41629;SDS011;27322;49.488;8.480;2022-09-16T06:27:39;5.50;;;1.73;;
41629;SDS011;27322;49.488;8.480;2022-09-16T06:30:05;6.38;;;1.77;;
41629;SDS011;27322;49.488;8.480;2022-09-16T06:32:31;7.30;;;1.83;;
41629;SDS011;27322;49.488;8.480;2022-09-16T06:34:57;7.05;;;1.70;;
41629;SDS011;27322;49.488;8.480;2022-09-16T06:37:22;7.07;;;1.80;;
41629;SDS011;27322;49.488;8.480;2022-09-16T06:39:48;6.28;;;2.70;;
41629;SDS011;27322;49.488;8.480;2022-09-16T06:42:14;5.13;;;1.48;;
41629;SDS011;27322;49.488;8.480;2022-09-16T06:44:39;8.68;;;1.70;;
41629;SDS011;27322;49.488;8.480;2022-09-16T06:47:05;6.28;;;1.45;;
41629;SDS011;27322;49.488;8.480;2022-09-16T06:49:31;6.97;;;1.50;;
41629;SDS011;27322;49.488;8.480;2022-09-16T06:51:57;6.55;;;1.50;;
41629;SDS011;27322;49.488;8.480;2022-09-16T06:54:22;5.57;;;1.73;;
41629;SDS011;27322;49.488;8.480;2022-09-16T06:56:48;6.18;;;1.77;;
41629;SDS011;27322;49.488;8.480;2022-09-16T06:59:14;7.20;;;1.90;;
41629;SDS011;27322;49.488;8.480;2022-09-16T07:01:39;9.38;;;1.75;;
41629;SDS011;27322;49.488;8.480;2022-09-16T07:04:07;5.25;;;1.63;;
41629;SDS011;27322;49.488;8.480;2022-09-16T07:06:40;6.50;;;1.55;;
41629;SDS011;27322;49.488;8.480;2022-09-16T07:09:06;4.65;;;1.50;;
41629;SDS011;27322;49.488;8.480;2022-09-16T07:11:31;5.10;;;1.70;;
41629;SDS011;27322;49.488;8.480;2022-09-16T07:13:57;4.97;;;1.65;;
41629;SDS011;27322;49.488;8.480;2022-09-16T07:16:24;5.78;;;1.73;;
41629;SDS011;27322;49.488;8.480;2022-09-16T07:18:54;7.57;;;1.40;;
41629;SDS011;27322;49.488;8.480;2022-09-16T07:21:22;8.50;;;1.83;;
41629;SDS011;27322;49.488;8.480;2022-09-16T07:23:53;5.68;;;1.40;;
41629;SDS011;27322;49.488;8.480;2022-09-16T07:26:27;7.88;;;1.67;;
41629;SDS011;27322;49.488;8.480;2022-09-16T07:28:54;8.57;;;1.67;;
41629;SDS011;27322;49.488;8.480;2022-09-16T07:31:23;4.45;;;1.55;;
41629;SDS011;27322;49.488;8.480;2022-09-16T07:33:51;4.10;;;1.20;;
41629;SDS011;27322;49.488;8.480;2022-09-16T07:36:20;6.75;;;1.58;;
41629;SDS011;27322;49.488;8.480;2022-09-16T07:38:48;6.90;;;1.75;;
41629;SDS011;27322;49.488;8.480;2022-09-16T07:41:15;7.28;;;1.55;;
41629;SDS011;27322;49.488;8.480;2022-09-16T07:43:44;8.10;;;1.50;;
41629;SDS011;27322;49.488;8.480;2022-09-16T07:46:10;7.38;;;1.45;;
41629;SDS011;27322;49.488;8.480;2022-09-16T07:48:37;4.40;;;1.48;;
41629;SDS011;27322;49.488;8.480;2022-09-16T07:51:09;5.10;;;1.60;;
41629;SDS011;27322;49.488;8.480;2022-09-16T07:53:43;10.85;;;1.60;;
41629;SDS011;27322;49.488;8.480;2022-09-16T07:56:10;6.30;;;1.60;;
41629;SDS011;27322;49.488;8.480;2022-09-16T07:58:39;5.25;;;1.27;;
41629;SDS011;27322;49.488;8.480;2022-09-16T08:01:05;5.32;;;1.52;;
41629;SDS011;27322;49.488;8.480;2022-09-16T08:03:35;4.50;;;1.33;;
41629;SDS011;27322;49.488;8.480;2022-09-16T08:06:04;5.07;;;1.25;;
41629;SDS011;27322;49.488;8.480;2022-09-16T08:08:31;4.32;;;1.27;;
41629;SDS011;27322;49.488;8.480;2022-09-16T08:10:57;3.72;;;1.10;;
41629;SDS011;27322;49.488;8.480;2022-09-16T08:13:24;7.10;;;1.40;;
41629;SDS011;27322;49.488;8.480;2022-09-16T08:15:51;9.82;;;1.63;;
41629;SDS011;27322;49.488;8.480;2022-09-16T08:18:18;6.70;;;1.48;;
41629;SDS011;27322;49.488;8.480;2022-09-16T08:20:44;5.47;;;1.23;;
41629;SDS011;27322;49.488;8.480;2022-09-16T08:23:10;4.43;;;1.30;;
41629;SDS011;27322;49.488;8.480;2022-09-16T08:25:36;7.72;;;1.35;;
41629;SDS011;27322;49.488;8.480;2022-09-16T08:28:03;5.07;;;1.35;;
41629;SDS011;27322;49.488;8.480;2022-09-16T08:30:29;4.32;;;1.60;;
41629;SDS011;27322;49.488;8.480;2022-09-16T08:32:55;6.18;;;1.10;;
41629;SDS011;27322;49.488;8.480;2022-09-16T08:35:22;4.90;;;1.23;;
41629;SDS011;27322;49.488;8.480;2022-09-16T08:37:47;7.72;;;1.50;;
41629;SDS011;27322;49.488;8.480;2022-09-16T08:40:14;5.13;;;1.40;;
41629;SDS011;27322;49.488;8.480;2022-09-16T08:45:28;5.47;;;1.10;;
41629;SDS011;27322;49.488;8.480;2022-09-16T08:51:15;10.88;;;1.70;;
41629;SDS011;27322;49.488;8.480;2022-09-16T08:53:55;6.30;;;1.27;;
41629;SDS011;27322;49.488;8.480;2022-09-16T08:56:24;5.53;;;1.48;;
41629;SDS011;27322;49.488;8.480;2022-09-16T08:58:54;6.30;;;1.00;;
41629;SDS011;27322;49.488;8.480;2022-09-16T09:01:27;5.25;;;1.00;;
41629;SDS011;27322;49.488;8.480;2022-09-16T09:04:05;6.05;;;1.02;;
41629;SDS011;27322;49.488;8.480;2022-09-16T09:09:26;6.47;;;1.17;;
41629;SDS011;27322;49.488;8.480;2022-09-16T09:29:05;3.50;;;1.13;;
41629;SDS011;27322;49.488;8.480;2022-09-16T09:45:15;3.92;;;0.70;;
41629;SDS011;27322;49.488;8.480;2022-09-16T09:48:18;3.85;;;0.80;;
41629;SDS011;27322;49.488;8.480;2022-09-16T09:50:48;3.88;;;1.00;;
41629;SDS011;27322;49.488;8.480;2022-09-16T09:55:44;5.70;;;0.80;;
41629;SDS011;27322;49.488;8.480;2022-09-16T10:00:38;3.60;;;0.90;;
41629;SDS011;27322;49.488;8.480;2022-09-16T10:03:14;4.80;;;0.80;;
41629;SDS011;27322;49.488;8.480;2022-09-16T10:05:42;3.83;;;0.75;;
41629;SDS011;27322;49.488;8.480;2022-09-16T10:10:39;4.60;;;0.80;;
41629;SDS011;27322;49.488;8.480;2022-09-16T10:13:18;4.40;;;0.77;;
41629;SDS011;27322;49.488;8.480;2022-09-16T10:15:46;5.75;;;0.80;;
41629;SDS011;27322;49.488;8.480;2022-09-16T10:18:13;3.75;;;0.85;;
41629;SDS011;27322;49.488;8.480;2022-09-16T10:20:55;4.38;;;0.70;;
41629;SDS011;27322;49.488;8.480;2022-09-16T10:23:27;4.18;;;0.82;;
41629;SDS011;27322;49.488;8.480;2022-09-16T10:28:55;2.38;;;0.70;;
41629;SDS011;27322;49.488;8.480;2022-09-16T10:31:27;4.38;;;0.80;;
41629;SDS011;27322;49.488;8.480;2022-09-16T10:33:56;3.67;;;0.90;;
41629;SDS011;27322;49.488;8.480;2022-09-16T10:36:24;4.35;;;0.73;;
41629;SDS011;27322;49.488;8.480;2022-09-16T10:38:56;7.20;;;0.75;;
41629;SDS011;27322;49.488;8.480;2022-09-16T10:41:28;2.58;;;0.60;;
41629;SDS011;27322;49.488;8.480;2022-09-16T10:43:58;3.33;;;0.68;;
41629;SDS011;27322;49.488;8.480;2022-09-16T10:46:28;3.35;;;0.70;;
41629;SDS011;27322;49.488;8.480;2022-09-16T10:48:57;3.65;;;0.88;;
41629;SDS011;27322;49.488;8.480;2022-09-16T10:51:30;9.27;;;0.80;;
41629;SDS011;27322;49.488;8.480;2022-09-16T10:54:01;3.38;;;0.60;;
41629;SDS011;27322;49.488;8.480;2022-09-16T10:56:45;4.57;;;0.73;;
41629;SDS011;27322;49.488;8.480;2022-09-16T10:59:13;5.35;;;1.00;;
41629;SDS011;27322;49.488;8.480;2022-09-16T11:04:30;5.15;;;0.70;;
41629;SDS011;27322;49.488;8.480;2022-09-16T11:26:33;4.20;;;0.80;;
41629;SDS011;27322;49.488;8.480;2022-09-16T11:43:12;3.42;;;0.70;;
41629;SDS011;27322;49.488;8.480;2022-09-16T11:51:34;4.47;;;0.95;;
41629;SDS011;27322;49.488;8.480;2022-09-16T11:56:52;2.95;;;0.80;;
41629;SDS011;27322;49.488;8.480;2022-09-16T11:59:47;3.85;;;0.60;;
41629;SDS011;27322;49.488;8.480;2022-09-16T12:10:17;5.30;;;1.08;;
41629;SDS011;27322;49.488;8.480;2022-09-16T12:13:08;2.55;;;0.68;;
41629;SDS011;27322;49.488;8.480;2022-09-16T12:15:41;3.60;;;0.77;;
41629;SDS011;27322;49.488;8.480;2022-09-16T12:21:44;3.97;;;0.70;;
41629;SDS011;27322;49.488;8.480;2022-09-16T12:30:03;4.10;;;0.80;;
41629;SDS011;27322;49.488;8.480;2022-09-16T12:32:49;4.18;;;0.90;;
41629;SDS011;27322;49.488;8.480;2022-09-16T12:35:43;3.20;;;0.63;;
41629;SDS011;27322;49.488;8.480;2022-09-16T12:38:28;2.47;;;0.60;;
41629;SDS011;27322;49.488;8.480;2022-09-16T13:02:56;3.90;;;0.80;;
41629;SDS011;27322;49.488;8.480;2022-09-16T13:05:35;4.95;;;0.70;;
41629;SDS011;27322;49.488;8.480;2022-09-16T13:08:04;4.43;;;1.08;;
41629;SDS011;27322;49.488;8.480;2022-09-16T13:10:39;3.80;;;0.77;;
41629;SDS011;27322;49.488;8.480;2022-09-16T13:13:06;2.42;;;0.50;;
41629;SDS011;27322;49.488;8.480;2022-09-16T13:15:41;2.60;;;0.65;;
41629;SDS011;27322;49.488;8.480;2022-09-16T13:18:09;3.40;;;0.80;;
41629;SDS011;27322;49.488;8.480;2022-09-16T13:20:52;2.42;;;0.70;;
41629;SDS011;27322;49.488;8.480;2022-09-16T13:23:23;6.85;;;1.00;;
41629;SDS011;27322;49.488;8.480;2022-09-16T13:26:03;3.92;;;1.00;;
41629;SDS011;27322;49.488;8.480;2022-09-16T13:33:36;2.63;;;0.63;;
41629;SDS011;27322;49.488;8.480;2022-09-16T13:38:44;6.13;;;1.17;;
41629;SDS011;27322;49.488;8.480;2022-09-16T13:43:58;4.50;;;1.17;;
41629;SDS011;27322;49.488;8.480;2022-09-16T13:46:26;4.72;;;1.10;;
41629;SDS011;27322;49.488;8.480;2022-09-16T13:51:39;1.95;;;0.68;;
41629;SDS011;27322;49.488;8.480;2022-09-16T13:54:18;2.53;;;0.70;;
41629;SDS011;27322;49.488;8.480;2022-09-16T13:56:50;2.15;;;0.60;;
41629;SDS011;27322;49.488;8.480;2022-09-16T14:13:17;3.05;;;1.10;;
41629;SDS011;27322;49.488;8.480;2022-09-16T14:15:49;4.13;;;1.10;;
41629;SDS011;27322;49.488;8.480;2022-09-16T14:18:23;2.70;;;1.00;;
41629;SDS011;27322;49.488;8.480;2022-09-16T14:23:25;3.58;;;1.33;;
41629;SDS011;27322;49.488;8.480;2022-09-16T14:25:52;3.72;;;0.98;;
41629;SDS011;27322;49.488;8.480;2022-09-16T14:28:22;2.50;;;0.65;;
41629;SDS011;27322;49.488;8.480;2022-09-16T14:33:17;1.30;;;0.45;;
41629;SDS011;27322;49.488;8.480;2022-09-16T14:35:46;2.67;;;0.70;;
41629;SDS011;27322;49.488;8.480;2022-09-16T14:38:14;2.47;;;0.63;;
41629;SDS011;27322;49.488;8.480;2022-09-16T14:40:42;2.65;;;0.88;;
41629;SDS011;27322;49.488;8.480;2022-09-16T14:43:13;3.90;;;0.68;;
41629;SDS011;27322;49.488;8.480;2022-09-16T14:45:43;3.47;;;0.80;;
41629;SDS011;27322;49.488;8.480;2022-09-16T14:48:12;3.30;;;0.85;;
41629;SDS011;27322;49.488;8.480;2022-09-16T14:50:41;2.47;;;1.02;;
41629;SDS011;27322;49.488;8.480;2022-09-16T14:55:57;2.55;;;0.50;;
41629;SDS011;27322;49.488;8.480;2022-09-16T14:58:25;1.10;;;0.47;;
41629;SDS011;27322;49.488;8.480;2022-09-16T15:01:01;1.80;;;0.60;;
41629;SDS011;27322;49.488;8.480;2022-09-16T15:03:36;1.90;;;0.60;;
41629;SDS011;27322;49.488;8.480;2022-09-16T15:06:17;1.50;;;0.50;;
41629;SDS011;27322;49.488;8.480;2022-09-16T15:11:19;1.98;;;0.60;;
41629;SDS011;27322;49.488;8.480;2022-09-16T15:13:47;1.83;;;0.63;;
41629;SDS011;27322;49.488;8.480;2022-09-16T15:16:14;1.88;;;0.60;;
41629;SDS011;27322;49.488;8.480;2022-09-16T15:18:54;1.70;;;0.50;;
41629;SDS011;27322;49.488;8.480;2022-09-16T15:21:24;4.57;;;1.00;;
41629;SDS011;27322;49.488;8.480;2022-09-16T15:23:58;3.15;;;0.90;;
41629;SDS011;27322;49.488;8.480;2022-09-16T15:26:29;3.35;;;1.10;;
41629;SDS011;27322;49.488;8.480;2022-09-16T15:29:03;4.03;;;1.50;;
41629;SDS011;27322;49.488;8.480;2022-09-16T15:31:36;3.53;;;1.30;;
41629;SDS011;27322;49.488;8.480;2022-09-16T15:36:55;2.70;;;1.10;;
41629;SDS011;27322;49.488;8.480;2022-09-16T15:41:48;3.65;;;1.20;;
41629;SDS011;27322;49.488;8.480;2022-09-16T15:44:15;3.47;;;1.45;;
41629;SDS011;27322;49.488;8.480;2022-09-16T15:46:47;4.15;;;1.45;;
41629;SDS011;27322;49.488;8.480;2022-09-16T15:49:15;4.05;;;1.00;;
41629;SDS011;27322;49.488;8.480;2022-09-16T15:51:44;2.83;;;1.00;;
41629;SDS011;27322;49.488;8.480;2022-09-16T15:54:16;3.83;;;1.30;;
41629;SDS011;27322;49.488;8.480;2022-09-16T15:57:05;3.20;;;0.77;;
41629;SDS011;27322;49.488;8.480;2022-09-16T16:02:30;1.65;;;0.60;;
41629;SDS011;27322;49.488;8.480;2022-09-16T16:05:08;0.55;;;0.30;;
41629;SDS011;27322;49.488;8.480;2022-09-16T16:07:40;2.15;;;0.30;;
41629;SDS011;27322;49.488;8.480;2022-09-16T16:10:12;1.55;;;0.50;;
41629;SDS011;27322;49.488;8.480;2022-09-16T16:12:42;0.82;;;0.40;;
41629;SDS011;27322;49.488;8.480;2022-09-16T16:15:10;2.35;;;0.50;;
41629;SDS011;27322;49.488;8.480;2022-09-16T16:17:36;2.17;;;0.50;;
41629;SDS011;27322;49.488;8.480;2022-09-16T16:20:03;1.20;;;0.40;;
41629;SDS011;27322;49.488;8.480;2022-09-16T16:22:29;3.33;;;1.00;;
41629;SDS011;27322;49.488;8.480;2022-09-16T16:24:56;3.58;;;1.27;;
41629;SDS011;27322;49.488;8.480;2022-09-16T16:27:21;7.38;;;2.03;;
41629;SDS011;27322;49.488;8.480;2022-09-16T16:29:47;2.78;;;1.10;;
41629;SDS011;27322;49.488;8.480;2022-09-16T16:32:15;2.35;;;0.80;;
41629;SDS011;27322;49.488;8.480;2022-09-16T16:34:42;2.35;;;0.65;;
41629;SDS011;27322;49.488;8.480;2022-09-16T16:37:10;2.75;;;1.00;;
41629;SDS011;27322;49.488;8.480;2022-09-16T16:39:37;2.30;;;0.70;;
41629;SDS011;27322;49.488;8.480;2022-09-16T16:42:03;3.75;;;0.80;;
41629;SDS011;27322;49.488;8.480;2022-09-16T16:44:32;5.45;;;0.70;;
41629;SDS011;27322;49.488;8.480;2022-09-16T16:46:58;3.45;;;0.75;;
41629;SDS011;27322;49.488;8.480;2022-09-16T16:49:24;2.65;;;1.08;;
41629;SDS011;27322;49.488;8.480;2022-09-16T16:51:50;4.55;;;1.80;;
41629;SDS011;27322;49.488;8.480;2022-09-16T16:54:18;8.68;;;2.88;;
41629;SDS011;27322;49.488;8.480;2022-09-16T16:56:45;6.70;;;2.38;;
41629;SDS011;27322;49.488;8.480;2022-09-16T16:59:12;6.80;;;2.70;;
41629;SDS011;27322;49.488;8.480;2022-09-16T17:01:38;5.90;;;2.00;;
41629;SDS011;27322;49.488;8.480;2022-09-16T17:04:04;3.30;;;0.70;;
41629;SDS011;27322;49.488;8.480;2022-09-16T17:06:30;1.90;;;0.47;;
41629;SDS011;27322;49.488;8.480;2022-09-16T17:08:58;2.15;;;0.47;;
41629;SDS011;27322;49.488;8.480;2022-09-16T17:11:24;1.45;;;0.60;;
41629;SDS011;27322;49.488;8.480;2022-09-16T17:13:51;2.22;;;0.52;;
41629;SDS011;27322;49.488;8.480;2022-09-16T17:16:21;2.25;;;0.60;;
41629;SDS011;27322;49.488;8.480;2022-09-16T17:18:49;2.42;;;0.70;;
41629;SDS011;27322;49.488;8.480;2022-09-16T17:21:22;2.75;;;0.70;;
41629;SDS011;27322;49.488;8.480;2022-09-16T17:23:52;4.40;;;0.75;;
41629;SDS011;27322;49.488;8.480;2022-09-16T17:26:18;2.97;;;0.90;;
41629;SDS011;27322;49.488;8.480;2022-09-16T17:28:46;5.60;;;0.82;;
41629;SDS011;27322;49.488;8.480;2022-09-16T17:33:38;4.07;;;0.70;;
41629;SDS011;27322;49.488;8.480;2022-09-16T17:36:04;3.70;;;1.00;;
41629;SDS011;27322;49.488;8.480;2022-09-16T17:38:32;3.28;;;0.88;;
41629;SDS011;27322;49.488;8.480;2022-09-16T17:41:05;2.30;;;0.80;;
41629;SDS011;27322;49.488;8.480;2022-09-16T17:43:33;3.25;;;0.80;;
41629;SDS011;27322;49.488;8.480;2022-09-16T17:45:59;3.30;;;1.20;;
41629;SDS011;27322;49.488;8.480;2022-09-16T17:48:27;3.92;;;1.58;;
41629;SDS011;27322;49.488;8.480;2022-09-16T17:50:53;7.32;;;2.20;;
41629;SDS011;27322;49.488;8.480;2022-09-16T17:53:20;9.15;;;4.50;;
41629;SDS011;27322;49.488;8.480;2022-09-16T17:55:46;9.45;;;4.63;;
41629;SDS011;27322;49.488;8.480;2022-09-16T17:58:12;10.43;;;4.57;;
41629;SDS011;27322;49.488;8.480;2022-09-16T18:00:38;7.38;;;3.40;;
41629;SDS011;27322;49.488;8.480;2022-09-16T18:03:04;6.80;;;3.03;;
41629;SDS011;27322;49.488;8.480;2022-09-16T18:05:34;6.72;;;3.05;;
41629;SDS011;27322;49.488;8.480;2022-09-16T18:08:00;8.07;;;3.40;;
41629;SDS011;27322;49.488;8.480;2022-09-16T18:10:27;6.28;;;2.38;;
41629;SDS011;27322;49.488;8.480;2022-09-16T18:12:52;5.53;;;2.50;;
41629;SDS011;27322;49.488;8.480;2022-09-16T18:15:18;6.13;;;2.40;;
41629;SDS011;27322;49.488;8.480;2022-09-16T18:17:44;8.10;;;2.90;;
41629;SDS011;27322;49.488;8.480;2022-09-16T18:20:10;3.33;;;1.42;;
41629;SDS011;27322;49.488;8.480;2022-09-16T18:22:36;3.40;;;1.30;;
41629;SDS011;27322;49.488;8.480;2022-09-16T18:25:02;3.45;;;1.30;;
41629;SDS011;27322;49.488;8.480;2022-09-16T18:27:29;3.58;;;0.90;;
41629;SDS011;27322;49.488;8.480;2022-09-16T18:29:54;3.08;;;1.10;;
41629;SDS011;27322;49.488;8.480;2022-09-16T18:32:21;3.03;;;1.00;;
41629;SDS011;27322;49.488;8.480;2022-09-16T18:34:47;4.25;;;1.00;;
41629;SDS011;27322;49.488;8.480;2022-09-16T18:37:13;3.28;;;0.80;;
41629;SDS011;27322;49.488;8.480;2022-09-16T18:39:39;3.65;;;1.00;;
41629;SDS011;27322;49.488;8.480;2022-09-16T18:42:08;3.58;;;1.10;;
41629;SDS011;27322;49.488;8.480;2022-09-16T18:44:33;4.65;;;1.40;;
41629;SDS011;27322;49.488;8.480;2022-09-16T18:46:59;3.10;;;1.23;;
41629;SDS011;27322;49.488;8.480;2022-09-16T18:49:25;3.35;;;1.15;;
41629;SDS011;27322;49.488;8.480;2022-09-16T18:51:53;3.00;;;1.00;;
41629;SDS011;27322;49.488;8.480;2022-09-16T18:54:22;2.22;;;0.90;;
41629;SDS011;27322;49.488;8.480;2022-09-16T18:59:20;3.67;;;1.00;;